Newark, CA

2:16 AM PST on December 26, 2014 (GMT -0800)
Newark Lake Area | Change Station
CLOSE
Current Station
Personal Weather Station
Location: Newark, CA
Elevation: 26 ft
Nearby Weather Stations

Elev 26 ft 37.56 °N, 122.04 °W | Updated 2 seconds ago

Clear
Clear
46.4 °F
Feels Like 46 °F
N
0.7
Wind Variable Wind from NNW
Gusts 2.5 mph

Today
High -- | Low -- °F
--% Chance of Precip.
Yesterday
High -- | Low -- °F
Precip. -- in
7:21 AM 4:56 PM
Waxing Crescent, 24% visible
Pressure 30.13 in
Visibility 10.0 miles
Clouds Clear
Windchill 46 °F
Dew Point 33 °F
Humidity 60%
Rainfall 0.00 in
Snow Depth Not available.
UV 0 out of 12
Pollen 4.90 out of 12
Air Quality Not available.
Flu Activity Not available.
METAR KNUQ 260956Z 27003KT 10SM CLR 07/03 A3012 RMK AO2 SLP202 T00720028

More Conditions Fewer Conditions

Pressure 30.13 in
Visibility 10.0 miles
Clouds Clear
Windchill 46 °F
Dew Point 33 °F
Humidity 60%
Rainfall 0.00 in
Snow Depth Not available.
UV 0 out of 12
Pollen 4.90 out of 12
Air Quality Not available.
Flu Activity Not available.
METAR KNUQ 260956Z 27003KT 10SM CLR 07/03 A3012 RMK AO2 SLP202 T00720028

More Conditions Fewer Conditions

10-Day Weather Forecast

Almanac

Astronomy

Dec. 26, 2014 Rise Set
Actual Time
Civil Twilight
Nautical Twilight
Astronomical Twilight
Moon
Length of Visible Light
Length of Day
Tomorrow will be .
, % of the Moon is Illuminated

Today's Extremes

State Highs State Lows

Community

WunderPhotos

Upload Photos

1,780,573 photos uploaded!

WunderBlogs® & News

Nearby

Air Quality

  Air Quality AQ Index Pollutant
Not available.

Snow Depth

Station Depth Elevation

Earthquake Activity

City Distance Mag. Time & Date
Minimum magnitude displayed is 2.5.

Coastal Water Temperatures

Place Temperature

Nearby Weather Stations